sensor_id;sensor_type;location;lat;lon;timestamp;P1;durP1;ratioP1;P2;durP2;ratioP2
22435;SDS011;11385;50.822;4.324;2023-06-26T00:01:29;10.58;;;5.60;;
22435;SDS011;11385;50.822;4.324;2023-06-26T00:03:57;9.75;;;5.47;;
22435;SDS011;11385;50.822;4.324;2023-06-26T00:06:25;8.33;;;5.15;;
22435;SDS011;11385;50.822;4.324;2023-06-26T00:08:52;7.12;;;5.22;;
22435;SDS011;11385;50.822;4.324;2023-06-26T00:11:20;9.93;;;5.15;;
22435;SDS011;11385;50.822;4.324;2023-06-26T00:13:48;7.97;;;4.87;;
22435;SDS011;11385;50.822;4.324;2023-06-26T00:16:15;6.78;;;4.05;;
22435;SDS011;11385;50.822;4.324;2023-06-26T00:18:41;6.47;;;3.80;;
22435;SDS011;11385;50.822;4.324;2023-06-26T00:21:08;8.05;;;3.62;;
22435;SDS011;11385;50.822;4.324;2023-06-26T00:23:34;6.85;;;3.90;;
22435;SDS011;11385;50.822;4.324;2023-06-26T00:26:04;5.85;;;3.92;;
22435;SDS011;11385;50.822;4.324;2023-06-26T00:28:31;7.78;;;3.98;;
22435;SDS011;11385;50.822;4.324;2023-06-26T00:30:57;6.05;;;3.47;;
22435;SDS011;11385;50.822;4.324;2023-06-26T00:33:24;6.70;;;3.80;;
22435;SDS011;11385;50.822;4.324;2023-06-26T00:35:50;5.12;;;3.45;;
22435;SDS011;11385;50.822;4.324;2023-06-26T00:38:17;5.42;;;3.80;;
22435;SDS011;11385;50.822;4.324;2023-06-26T00:40:44;6.55;;;3.45;;
22435;SDS011;11385;50.822;4.324;2023-06-26T00:43:10;6.65;;;3.40;;
22435;SDS011;11385;50.822;4.324;2023-06-26T00:45:37;7.50;;;3.92;;
22435;SDS011;11385;50.822;4.324;2023-06-26T00:48:04;7.10;;;3.70;;
22435;SDS011;11385;50.822;4.324;2023-06-26T00:50:32;6.55;;;3.60;;
22435;SDS011;11385;50.822;4.324;2023-06-26T00:52:59;12.23;;;4.12;;
22435;SDS011;11385;50.822;4.324;2023-06-26T00:55:27;7.25;;;3.72;;
22435;SDS011;11385;50.822;4.324;2023-06-26T00:57:55;9.18;;;4.15;;
22435;SDS011;11385;50.822;4.324;2023-06-26T01:00:22;7.58;;;3.75;;
22435;SDS011;11385;50.822;4.324;2023-06-26T01:02:49;7.87;;;3.60;;
22435;SDS011;11385;50.822;4.324;2023-06-26T01:05:15;6.97;;;3.33;;
22435;SDS011;11385;50.822;4.324;2023-06-26T01:07:44;5.87;;;3.22;;
22435;SDS011;11385;50.822;4.324;2023-06-26T01:10:10;10.15;;;3.55;;
22435;SDS011;11385;50.822;4.324;2023-06-26T01:12:37;8.23;;;3.27;;
22435;SDS011;11385;50.822;4.324;2023-06-26T01:15:05;6.85;;;3.10;;
22435;SDS011;11385;50.822;4.324;2023-06-26T01:17:32;9.50;;;3.58;;
22435;SDS011;11385;50.822;4.324;2023-06-26T01:20:01;7.12;;;3.20;;
22435;SDS011;11385;50.822;4.324;2023-06-26T01:23:05;6.00;;;3.15;;
22435;SDS011;11385;50.822;4.324;2023-06-26T01:25:35;5.78;;;3.42;;
22435;SDS011;11385;50.822;4.324;2023-06-26T01:28:05;7.95;;;3.30;;
22435;SDS011;11385;50.822;4.324;2023-06-26T01:30:34;9.63;;;3.30;;
22435;SDS011;11385;50.822;4.324;2023-06-26T01:33:03;7.25;;;3.35;;
22435;SDS011;11385;50.822;4.324;2023-06-26T01:35:31;8.58;;;3.27;;
22435;SDS011;11385;50.822;4.324;2023-06-26T01:40:38;7.87;;;3.30;;
22435;SDS011;11385;50.822;4.324;2023-06-26T01:43:06;7.10;;;3.33;;
22435;SDS011;11385;50.822;4.324;2023-06-26T01:45:36;6.30;;;3.50;;
22435;SDS011;11385;50.822;4.324;2023-06-26T01:48:05;6.10;;;2.98;;
22435;SDS011;11385;50.822;4.324;2023-06-26T01:50:34;7.92;;;3.37;;
22435;SDS011;11385;50.822;4.324;2023-06-26T01:53:04;8.65;;;3.52;;
22435;SDS011;11385;50.822;4.324;2023-06-26T01:55:40;8.30;;;3.50;;
22435;SDS011;11385;50.822;4.324;2023-06-26T02:00:32;7.47;;;4.10;;
22435;SDS011;11385;50.822;4.324;2023-06-26T02:02:59;6.90;;;3.35;;
22435;SDS011;11385;50.822;4.324;2023-06-26T02:05:26;6.55;;;3.30;;
22435;SDS011;11385;50.822;4.324;2023-06-26T02:07:53;8.35;;;3.72;;
22435;SDS011;11385;50.822;4.324;2023-06-26T02:10:19;7.33;;;3.15;;
22435;SDS011;11385;50.822;4.324;2023-06-26T02:12:46;7.95;;;3.37;;
22435;SDS011;11385;50.822;4.324;2023-06-26T02:15:13;9.15;;;3.98;;
22435;SDS011;11385;50.822;4.324;2023-06-26T02:17:39;8.60;;;3.70;;
22435;SDS011;11385;50.822;4.324;2023-06-26T02:20:06;9.98;;;3.67;;
22435;SDS011;11385;50.822;4.324;2023-06-26T02:22:35;7.78;;;3.62;;
22435;SDS011;11385;50.822;4.324;2023-06-26T02:25:02;7.25;;;3.90;;
22435;SDS011;11385;50.822;4.324;2023-06-26T02:27:29;8.53;;;3.95;;
22435;SDS011;11385;50.822;4.324;2023-06-26T02:29:56;7.37;;;3.33;;
22435;SDS011;11385;50.822;4.324;2023-06-26T02:32:22;7.83;;;3.67;;
22435;SDS011;11385;50.822;4.324;2023-06-26T02:34:49;8.30;;;3.70;;
22435;SDS011;11385;50.822;4.324;2023-06-26T02:37:17;9.08;;;3.90;;
22435;SDS011;11385;50.822;4.324;2023-06-26T02:39:44;7.33;;;3.33;;
22435;SDS011;11385;50.822;4.324;2023-06-26T02:42:11;8.25;;;4.08;;
22435;SDS011;11385;50.822;4.324;2023-06-26T02:44:38;9.23;;;4.10;;
22435;SDS011;11385;50.822;4.324;2023-06-26T02:47:05;8.73;;;3.75;;
22435;SDS011;11385;50.822;4.324;2023-06-26T02:49:31;7.37;;;3.08;;
22435;SDS011;11385;50.822;4.324;2023-06-26T02:51:58;9.30;;;3.90;;
22435;SDS011;11385;50.822;4.324;2023-06-26T02:54:25;10.55;;;4.17;;
22435;SDS011;11385;50.822;4.324;2023-06-26T02:56:51;7.72;;;3.30;;
22435;SDS011;11385;50.822;4.324;2023-06-26T02:59:18;8.75;;;3.85;;
22435;SDS011;11385;50.822;4.324;2023-06-26T03:01:44;13.60;;;4.70;;
22435;SDS011;11385;50.822;4.324;2023-06-26T03:04:11;8.23;;;3.85;;
22435;SDS011;11385;50.822;4.324;2023-06-26T03:06:38;8.48;;;3.83;;
22435;SDS011;11385;50.822;4.324;2023-06-26T03:09:04;12.07;;;3.95;;
22435;SDS011;11385;50.822;4.324;2023-06-26T03:11:31;7.28;;;3.95;;
22435;SDS011;11385;50.822;4.324;2023-06-26T03:13:57;9.75;;;4.25;;
22435;SDS011;11385;50.822;4.324;2023-06-26T03:16:24;11.28;;;4.25;;
22435;SDS011;11385;50.822;4.324;2023-06-26T03:18:51;11.25;;;3.92;;
22435;SDS011;11385;50.822;4.324;2023-06-26T03:21:17;11.05;;;3.95;;
22435;SDS011;11385;50.822;4.324;2023-06-26T03:23:44;10.18;;;3.95;;
22435;SDS011;11385;50.822;4.324;2023-06-26T03:26:10;18.62;;;4.97;;
22435;SDS011;11385;50.822;4.324;2023-06-26T03:28:39;13.80;;;4.35;;
22435;SDS011;11385;50.822;4.324;2023-06-26T03:31:07;10.95;;;4.45;;
22435;SDS011;11385;50.822;4.324;2023-06-26T03:33:34;11.03;;;4.47;;
22435;SDS011;11385;50.822;4.324;2023-06-26T03:36:00;13.10;;;4.60;;
22435;SDS011;11385;50.822;4.324;2023-06-26T03:38:27;14.00;;;4.70;;
22435;SDS011;11385;50.822;4.324;2023-06-26T03:40:54;10.00;;;4.50;;
22435;SDS011;11385;50.822;4.324;2023-06-26T03:43:20;15.40;;;4.90;;
22435;SDS011;11385;50.822;4.324;2023-06-26T03:45:47;13.78;;;4.72;;
22435;SDS011;11385;50.822;4.324;2023-06-26T03:48:14;9.30;;;4.47;;
22435;SDS011;11385;50.822;4.324;2023-06-26T03:50:40;11.78;;;4.65;;
22435;SDS011;11385;50.822;4.324;2023-06-26T03:53:07;15.55;;;4.47;;
22435;SDS011;11385;50.822;4.324;2023-06-26T03:55:33;12.28;;;4.90;;
22435;SDS011;11385;50.822;4.324;2023-06-26T03:58:00;16.37;;;5.05;;
22435;SDS011;11385;50.822;4.324;2023-06-26T04:00:28;15.08;;;4.85;;
22435;SDS011;11385;50.822;4.324;2023-06-26T04:02:54;13.20;;;5.70;;
22435;SDS011;11385;50.822;4.324;2023-06-26T04:05:21;14.35;;;4.80;;
22435;SDS011;11385;50.822;4.324;2023-06-26T04:07:50;11.70;;;4.40;;
22435;SDS011;11385;50.822;4.324;2023-06-26T04:10:18;13.58;;;4.67;;
22435;SDS011;11385;50.822;4.324;2023-06-26T04:12:47;15.23;;;5.25;;
22435;SDS011;11385;50.822;4.324;2023-06-26T04:15:14;14.30;;;4.28;;
22435;SDS011;11385;50.822;4.324;2023-06-26T04:17:40;15.83;;;6.33;;
22435;SDS011;11385;50.822;4.324;2023-06-26T04:20:07;17.48;;;4.50;;
22435;SDS011;11385;50.822;4.324;2023-06-26T04:22:34;12.85;;;4.35;;
22435;SDS011;11385;50.822;4.324;2023-06-26T04:25:02;11.90;;;4.60;;
22435;SDS011;11385;50.822;4.324;2023-06-26T04:27:29;17.07;;;4.37;;
22435;SDS011;11385;50.822;4.324;2023-06-26T04:29:56;11.50;;;3.92;;
22435;SDS011;11385;50.822;4.324;2023-06-26T04:32:23;15.10;;;4.20;;
22435;SDS011;11385;50.822;4.324;2023-06-26T04:34:50;19.23;;;5.03;;
22435;SDS011;11385;50.822;4.324;2023-06-26T04:37:17;16.87;;;4.30;;
22435;SDS011;11385;50.822;4.324;2023-06-26T04:39:44;12.10;;;4.30;;
22435;SDS011;11385;50.822;4.324;2023-06-26T04:42:11;15.60;;;4.42;;
22435;SDS011;11385;50.822;4.324;2023-06-26T04:44:38;11.55;;;4.70;;
22435;SDS011;11385;50.822;4.324;2023-06-26T04:47:07;11.45;;;4.17;;
22435;SDS011;11385;50.822;4.324;2023-06-26T04:49:34;11.48;;;3.70;;
22435;SDS011;11385;50.822;4.324;2023-06-26T04:52:01;16.70;;;4.97;;
22435;SDS011;11385;50.822;4.324;2023-06-26T04:54:28;14.18;;;4.72;;
22435;SDS011;11385;50.822;4.324;2023-06-26T04:56:55;13.75;;;4.72;;
22435;SDS011;11385;50.822;4.324;2023-06-26T04:59:22;13.22;;;4.30;;
22435;SDS011;11385;50.822;4.324;2023-06-26T05:01:49;17.75;;;4.72;;
22435;SDS011;11385;50.822;4.324;2023-06-26T05:04:15;17.55;;;5.30;;
22435;SDS011;11385;50.822;4.324;2023-06-26T05:06:42;15.90;;;4.85;;
22435;SDS011;11385;50.822;4.324;2023-06-26T05:09:09;19.02;;;4.65;;
22435;SDS011;11385;50.822;4.324;2023-06-26T05:11:36;14.93;;;4.30;;
22435;SDS011;11385;50.822;4.324;2023-06-26T05:14:03;21.07;;;4.20;;
22435;SDS011;11385;50.822;4.324;2023-06-26T05:16:32;13.22;;;4.30;;
22435;SDS011;11385;50.822;4.324;2023-06-26T05:19:00;15.43;;;4.30;;
22435;SDS011;11385;50.822;4.324;2023-06-26T05:21:27;13.15;;;3.98;;
22435;SDS011;11385;50.822;4.324;2023-06-26T05:24:00;14.38;;;4.40;;
22435;SDS011;11385;50.822;4.324;2023-06-26T05:26:28;15.15;;;4.50;;
22435;SDS011;11385;50.822;4.324;2023-06-26T05:28:55;13.70;;;4.00;;
22435;SDS011;11385;50.822;4.324;2023-06-26T05:31:22;13.50;;;4.15;;
22435;SDS011;11385;50.822;4.324;2023-06-26T05:33:49;15.08;;;4.00;;
22435;SDS011;11385;50.822;4.324;2023-06-26T05:36:16;11.50;;;3.70;;
22435;SDS011;11385;50.822;4.324;2023-06-26T05:38:44;14.30;;;4.55;;
22435;SDS011;11385;50.822;4.324;2023-06-26T05:41:11;10.80;;;3.50;;
22435;SDS011;11385;50.822;4.324;2023-06-26T05:43:38;14.50;;;3.80;;
22435;SDS011;11385;50.822;4.324;2023-06-26T05:46:04;13.62;;;3.80;;
22435;SDS011;11385;50.822;4.324;2023-06-26T05:48:31;14.15;;;4.00;;
22435;SDS011;11385;50.822;4.324;2023-06-26T05:50:58;7.10;;;2.92;;
22435;SDS011;11385;50.822;4.324;2023-06-26T05:53:25;10.40;;;3.55;;
22435;SDS011;11385;50.822;4.324;2023-06-26T05:55:52;10.88;;;2.80;;
22435;SDS011;11385;50.822;4.324;2023-06-26T05:58:18;11.70;;;2.77;;
22435;SDS011;11385;50.822;4.324;2023-06-26T06:00:46;16.67;;;3.20;;
22435;SDS011;11385;50.822;4.324;2023-06-26T06:03:12;14.55;;;5.53;;
22435;SDS011;11385;50.822;4.324;2023-06-26T06:05:39;10.32;;;3.20;;
22435;SDS011;11385;50.822;4.324;2023-06-26T06:08:06;8.40;;;2.52;;
22435;SDS011;11385;50.822;4.324;2023-06-26T06:10:32;12.75;;;3.52;;
22435;SDS011;11385;50.822;4.324;2023-06-26T06:13:00;8.58;;;2.90;;
22435;SDS011;11385;50.822;4.324;2023-06-26T06:15:27;14.73;;;3.02;;
22435;SDS011;11385;50.822;4.324;2023-06-26T06:17:54;7.30;;;2.80;;
22435;SDS011;11385;50.822;4.324;2023-06-26T06:20:20;14.35;;;5.70;;
22435;SDS011;11385;50.822;4.324;2023-06-26T06:22:47;11.22;;;3.42;;
22435;SDS011;11385;50.822;4.324;2023-06-26T06:25:14;10.63;;;3.25;;
22435;SDS011;11385;50.822;4.324;2023-06-26T06:27:41;8.38;;;2.40;;
22435;SDS011;11385;50.822;4.324;2023-06-26T06:30:10;13.88;;;3.65;;
22435;SDS011;11385;50.822;4.324;2023-06-26T06:32:38;13.72;;;3.20;;
22435;SDS011;11385;50.822;4.324;2023-06-26T06:35:05;10.80;;;2.75;;
22435;SDS011;11385;50.822;4.324;2023-06-26T06:37:34;11.03;;;2.42;;
22435;SDS011;11385;50.822;4.324;2023-06-26T06:40:02;9.63;;;3.05;;
22435;SDS011;11385;50.822;4.324;2023-06-26T06:42:29;9.18;;;2.65;;
22435;SDS011;11385;50.822;4.324;2023-06-26T06:44:56;8.13;;;2.58;;
22435;SDS011;11385;50.822;4.324;2023-06-26T06:47:23;7.05;;;1.52;;
22435;SDS011;11385;50.822;4.324;2023-06-26T06:49:49;9.45;;;2.35;;
22435;SDS011;11385;50.822;4.324;2023-06-26T06:52:16;5.75;;;1.85;;
22435;SDS011;11385;50.822;4.324;2023-06-26T06:54:53;8.80;;;1.87;;
22435;SDS011;11385;50.822;4.324;2023-06-26T06:57:24;8.25;;;2.15;;
22435;SDS011;11385;50.822;4.324;2023-06-26T06:59:51;11.88;;;2.42;;
22435;SDS011;11385;50.822;4.324;2023-06-26T07:02:18;14.07;;;2.67;;
22435;SDS011;11385;50.822;4.324;2023-06-26T07:04:44;18.90;;;3.67;;
22435;SDS011;11385;50.822;4.324;2023-06-26T07:07:12;8.25;;;2.67;;
22435;SDS011;11385;50.822;4.324;2023-06-26T07:09:39;7.70;;;2.83;;
22435;SDS011;11385;50.822;4.324;2023-06-26T07:12:06;8.78;;;2.30;;
22435;SDS011;11385;50.822;4.324;2023-06-26T07:14:33;8.30;;;2.40;;
22435;SDS011;11385;50.822;4.324;2023-06-26T07:16:59;7.62;;;2.27;;
22435;SDS011;11385;50.822;4.324;2023-06-26T07:19:26;7.35;;;2.10;;
22435;SDS011;11385;50.822;4.324;2023-06-26T07:21:53;11.85;;;2.00;;
22435;SDS011;11385;50.822;4.324;2023-06-26T07:24:19;7.15;;;2.05;;
22435;SDS011;11385;50.822;4.324;2023-06-26T07:26:46;10.60;;;2.50;;
22435;SDS011;11385;50.822;4.324;2023-06-26T07:29:12;6.80;;;1.47;;
22435;SDS011;11385;50.822;4.324;2023-06-26T07:31:39;11.65;;;2.35;;
22435;SDS011;11385;50.822;4.324;2023-06-26T07:34:07;13.80;;;2.17;;
22435;SDS011;11385;50.822;4.324;2023-06-26T07:36:34;12.35;;;3.08;;
22435;SDS011;11385;50.822;4.324;2023-06-26T07:39:00;8.00;;;2.15;;
22435;SDS011;11385;50.822;4.324;2023-06-26T07:41:27;6.85;;;1.75;;
22435;SDS011;11385;50.822;4.324;2023-06-26T07:43:56;5.50;;;1.50;;
22435;SDS011;11385;50.822;4.324;2023-06-26T07:46:24;9.43;;;2.08;;
22435;SDS011;11385;50.822;4.324;2023-06-26T07:48:50;7.85;;;2.00;;
22435;SDS011;11385;50.822;4.324;2023-06-26T07:51:17;9.50;;;2.02;;
22435;SDS011;11385;50.822;4.324;2023-06-26T07:53:43;7.75;;;2.27;;
22435;SDS011;11385;50.822;4.324;2023-06-26T07:56:10;6.85;;;2.15;;
22435;SDS011;11385;50.822;4.324;2023-06-26T07:58:37;6.92;;;1.87;;
22435;SDS011;11385;50.822;4.324;2023-06-26T08:01:04;7.33;;;1.60;;
22435;SDS011;11385;50.822;4.324;2023-06-26T08:03:30;6.53;;;2.35;;
22435;SDS011;11385;50.822;4.324;2023-06-26T08:05:57;7.05;;;1.85;;
22435;SDS011;11385;50.822;4.324;2023-06-26T08:08:23;9.08;;;2.37;;
22435;SDS011;11385;50.822;4.324;2023-06-26T08:10:50;6.42;;;1.70;;
22435;SDS011;11385;50.822;4.324;2023-06-26T08:13:17;6.15;;;1.50;;
22435;SDS011;11385;50.822;4.324;2023-06-26T08:15:43;6.83;;;1.90;;
22435;SDS011;11385;50.822;4.324;2023-06-26T08:18:10;6.78;;;1.70;;
22435;SDS011;11385;50.822;4.324;2023-06-26T08:20:37;4.28;;;1.50;;
22435;SDS011;11385;50.822;4.324;2023-06-26T08:23:04;5.97;;;1.80;;
22435;SDS011;11385;50.822;4.324;2023-06-26T08:25:31;4.80;;;1.45;;
22435;SDS011;11385;50.822;4.324;2023-06-26T08:27:58;5.47;;;1.45;;
22435;SDS011;11385;50.822;4.324;2023-06-26T08:30:24;9.70;;;1.57;;
22435;SDS011;11385;50.822;4.324;2023-06-26T08:32:55;8.28;;;1.82;;
22435;SDS011;11385;50.822;4.324;2023-06-26T08:35:21;7.42;;;1.75;;
22435;SDS011;11385;50.822;4.324;2023-06-26T08:37:48;5.97;;;2.10;;
22435;SDS011;11385;50.822;4.324;2023-06-26T08:40:16;7.45;;;2.22;;
22435;SDS011;11385;50.822;4.324;2023-06-26T08:42:44;8.23;;;2.50;;
22435;SDS011;11385;50.822;4.324;2023-06-26T08:45:11;7.17;;;2.25;;
22435;SDS011;11385;50.822;4.324;2023-06-26T08:47:38;8.10;;;1.92;;
22435;SDS011;11385;50.822;4.324;2023-06-26T08:50:08;10.50;;;2.20;;
22435;SDS011;11385;50.822;4.324;2023-06-26T08:52:42;9.38;;;2.20;;
22435;SDS011;11385;50.822;4.324;2023-06-26T08:55:11;5.35;;;1.90;;
22435;SDS011;11385;50.822;4.324;2023-06-26T08:57:42;6.95;;;2.05;;
22435;SDS011;11385;50.822;4.324;2023-06-26T09:00:09;3.90;;;1.35;;
22435;SDS011;11385;50.822;4.324;2023-06-26T09:02:36;5.47;;;2.02;;
22435;SDS011;11385;50.822;4.324;2023-06-26T09:05:03;8.53;;;1.70;;
22435;SDS011;11385;50.822;4.324;2023-06-26T09:07:31;8.25;;;2.30;;
22435;SDS011;11385;50.822;4.324;2023-06-26T09:10:04;4.87;;;1.12;;
22435;SDS011;11385;50.822;4.324;2023-06-26T09:12:33;6.15;;;1.67;;
22435;SDS011;11385;50.822;4.324;2023-06-26T09:15:00;6.80;;;1.98;;
22435;SDS011;11385;50.822;4.324;2023-06-26T09:17:29;4.50;;;1.60;;
22435;SDS011;11385;50.822;4.324;2023-06-26T09:19:56;6.53;;;1.37;;
22435;SDS011;11385;50.822;4.324;2023-06-26T09:22:27;5.45;;;1.37;;
22435;SDS011;11385;50.822;4.324;2023-06-26T09:24:57;8.28;;;1.75;;
22435;SDS011;11385;50.822;4.324;2023-06-26T09:27:24;10.63;;;1.80;;
22435;SDS011;11385;50.822;4.324;2023-06-26T09:29:51;5.65;;;1.90;;
22435;SDS011;11385;50.822;4.324;2023-06-26T09:32:23;6.27;;;1.70;;
22435;SDS011;11385;50.822;4.324;2023-06-26T09:34:52;6.67;;;1.55;;
22435;SDS011;11385;50.822;4.324;2023-06-26T09:37:21;9.13;;;2.70;;
22435;SDS011;11385;50.822;4.324;2023-06-26T09:39:50;6.55;;;2.22;;
22435;SDS011;11385;50.822;4.324;2023-06-26T09:42:18;8.33;;;2.40;;
22435;SDS011;11385;50.822;4.324;2023-06-26T09:44:46;4.10;;;1.50;;
22435;SDS011;11385;50.822;4.324;2023-06-26T09:47:16;9.88;;;2.83;;
22435;SDS011;11385;50.822;4.324;2023-06-26T09:49:44;5.70;;;1.50;;
22435;SDS011;11385;50.822;4.324;2023-06-26T09:52:14;4.60;;;1.77;;
22435;SDS011;11385;50.822;4.324;2023-06-26T09:54:42;7.70;;;1.37;;
22435;SDS011;11385;50.822;4.324;2023-06-26T09:57:12;6.67;;;1.55;;
22435;SDS011;11385;50.822;4.324;2023-06-26T09:59:40;5.90;;;2.00;;
22435;SDS011;11385;50.822;4.324;2023-06-26T10:02:07;6.55;;;2.02;;
22435;SDS011;11385;50.822;4.324;2023-06-26T10:04:35;4.95;;;1.60;;
22435;SDS011;11385;50.822;4.324;2023-06-26T10:07:02;6.17;;;1.22;;
22435;SDS011;11385;50.822;4.324;2023-06-26T10:09:32;5.15;;;2.42;;
22435;SDS011;11385;50.822;4.324;2023-06-26T10:12:03;10.13;;;3.02;;
22435;SDS011;11385;50.822;4.324;2023-06-26T10:14:35;3.75;;;1.25;;
22435;SDS011;11385;50.822;4.324;2023-06-26T10:17:06;5.42;;;2.20;;
22435;SDS011;11385;50.822;4.324;2023-06-26T10:19:39;10.43;;;2.67;;
22435;SDS011;11385;50.822;4.324;2023-06-26T10:22:09;8.25;;;3.02;;
22435;SDS011;11385;50.822;4.324;2023-06-26T10:24:39;3.83;;;1.30;;
22435;SDS011;11385;50.822;4.324;2023-06-26T10:27:23;6.37;;;1.70;;
22435;SDS011;11385;50.822;4.324;2023-06-26T10:29:53;3.83;;;1.60;;
22435;SDS011;11385;50.822;4.324;2023-06-26T10:32:25;6.87;;;1.60;;
22435;SDS011;11385;50.822;4.324;2023-06-26T10:34:53;3.70;;;1.50;;
22435;SDS011;11385;50.822;4.324;2023-06-26T10:37:40;5.95;;;2.47;;
22435;SDS011;11385;50.822;4.324;2023-06-26T10:39:59;4.45;;;1.52;;
22435;SDS011;11385;50.822;4.324;2023-06-26T10:45:08;5.75;;;2.15;;
22435;SDS011;11385;50.822;4.324;2023-06-26T10:47:39;5.80;;;2.30;;
22435;SDS011;11385;50.822;4.324;2023-06-26T10:50:20;5.72;;;1.95;;
22435;SDS011;11385;50.822;4.324;2023-06-26T10:55:29;6.53;;;2.10;;
22435;SDS011;11385;50.822;4.324;2023-06-26T10:57:56;9.30;;;2.42;;
22435;SDS011;11385;50.822;4.324;2023-06-26T11:00:24;7.28;;;2.15;;
22435;SDS011;11385;50.822;4.324;2023-06-26T11:02:50;6.97;;;2.10;;
22435;SDS011;11385;50.822;4.324;2023-06-26T11:05:23;5.97;;;1.85;;
22435;SDS011;11385;50.822;4.324;2023-06-26T11:10:47;6.87;;;1.40;;
22435;SDS011;11385;50.822;4.324;2023-06-26T11:13:05;6.45;;;2.22;;
22435;SDS011;11385;50.822;4.324;2023-06-26T11:15:32;5.62;;;1.85;;
22435;SDS011;11385;50.822;4.324;2023-06-26T11:17:58;7.83;;;2.80;;
22435;SDS011;11385;50.822;4.324;2023-06-26T11:20:25;7.80;;;1.70;;
22435;SDS011;11385;50.822;4.324;2023-06-26T11:22:53;5.12;;;1.70;;
22435;SDS011;11385;50.822;4.324;2023-06-26T11:25:23;8.73;;;1.65;;
22435;SDS011;11385;50.822;4.324;2023-06-26T11:27:50;11.05;;;1.80;;
22435;SDS011;11385;50.822;4.324;2023-06-26T11:30:23;6.65;;;2.08;;
22435;SDS011;11385;50.822;4.324;2023-06-26T11:32:51;7.80;;;2.27;;
22435;SDS011;11385;50.822;4.324;2023-06-26T11:35:22;7.67;;;2.30;;
22435;SDS011;11385;50.822;4.324;2023-06-26T11:37:54;8.88;;;3.33;;
22435;SDS011;11385;50.822;4.324;2023-06-26T11:40:23;8.93;;;2.00;;
22435;SDS011;11385;50.822;4.324;2023-06-26T11:42:52;11.48;;;4.45;;
22435;SDS011;11385;50.822;4.324;2023-06-26T11:45:19;6.05;;;1.80;;
22435;SDS011;11385;50.822;4.324;2023-06-26T11:47:46;7.72;;;2.42;;
22435;SDS011;11385;50.822;4.324;2023-06-26T11:50:14;5.58;;;1.80;;
22435;SDS011;11385;50.822;4.324;2023-06-26T11:52:43;9.20;;;2.50;;
22435;SDS011;11385;50.822;4.324;2023-06-26T11:55:11;16.23;;;7.80;;
22435;SDS011;11385;50.822;4.324;2023-06-26T11:57:38;6.08;;;2.20;;
22435;SDS011;11385;50.822;4.324;2023-06-26T12:00:12;6.22;;;1.90;;
22435;SDS011;11385;50.822;4.324;2023-06-26T12:02:39;5.75;;;1.42;;
22435;SDS011;11385;50.822;4.324;2023-06-26T12:05:06;6.33;;;1.32;;
22435;SDS011;11385;50.822;4.324;2023-06-26T12:07:34;6.72;;;2.02;;
22435;SDS011;11385;50.822;4.324;2023-06-26T12:10:02;6.35;;;1.98;;
22435;SDS011;11385;50.822;4.324;2023-06-26T12:12:30;6.03;;;1.80;;
22435;SDS011;11385;50.822;4.324;2023-06-26T12:14:59;6.97;;;1.87;;
22435;SDS011;11385;50.822;4.324;2023-06-26T12:17:26;7.37;;;1.65;;
22435;SDS011;11385;50.822;4.324;2023-06-26T12:19:53;8.48;;;2.00;;
22435;SDS011;11385;50.822;4.324;2023-06-26T12:22:20;7.30;;;1.47;;
22435;SDS011;11385;50.822;4.324;2023-06-26T12:24:47;4.08;;;1.75;;
22435;SDS011;11385;50.822;4.324;2023-06-26T12:27:15;9.40;;;1.87;;
22435;SDS011;11385;50.822;4.324;2023-06-26T12:29:53;9.03;;;1.82;;
22435;SDS011;11385;50.822;4.324;2023-06-26T12:32:23;6.15;;;1.37;;
22435;SDS011;11385;50.822;4.324;2023-06-26T12:34:51;6.50;;;1.50;;
22435;SDS011;11385;50.822;4.324;2023-06-26T12:37:18;5.55;;;1.47;;
22435;SDS011;11385;50.822;4.324;2023-06-26T12:39:47;5.70;;;1.35;;
22435;SDS011;11385;50.822;4.324;2023-06-26T12:42:19;5.33;;;1.43;;
22435;SDS011;11385;50.822;4.324;2023-06-26T12:44:49;4.00;;;1.30;;
22435;SDS011;11385;50.822;4.324;2023-06-26T12:47:17;3.90;;;1.40;;
22435;SDS011;11385;50.822;4.324;2023-06-26T12:49:49;3.98;;;0.93;;
22435;SDS011;11385;50.822;4.324;2023-06-26T12:52:16;8.03;;;1.80;;
22435;SDS011;11385;50.822;4.324;2023-06-26T12:54:45;5.70;;;1.47;;
22435;SDS011;11385;50.822;4.324;2023-06-26T12:57:13;4.65;;;1.27;;
22435;SDS011;11385;50.822;4.324;2023-06-26T12:59:41;4.33;;;1.60;;
22435;SDS011;11385;50.822;4.324;2023-06-26T13:02:09;3.77;;;1.30;;
22435;SDS011;11385;50.822;4.324;2023-06-26T13:04:37;8.30;;;1.60;;
22435;SDS011;11385;50.822;4.324;2023-06-26T13:07:06;9.05;;;2.12;;
22435;SDS011;11385;50.822;4.324;2023-06-26T13:09:34;7.33;;;1.62;;
22435;SDS011;11385;50.822;4.324;2023-06-26T13:12:02;6.60;;;1.72;;
22435;SDS011;11385;50.822;4.324;2023-06-26T13:14:31;6.78;;;1.50;;
22435;SDS011;11385;50.822;4.324;2023-06-26T13:16:59;7.35;;;1.50;;
22435;SDS011;11385;50.822;4.324;2023-06-26T13:19:27;5.87;;;1.82;;
22435;SDS011;11385;50.822;4.324;2023-06-26T13:21:53;6.50;;;1.75;;
22435;SDS011;11385;50.822;4.324;2023-06-26T13:24:21;5.90;;;2.15;;
22435;SDS011;11385;50.822;4.324;2023-06-26T13:26:47;4.83;;;1.17;;
22435;SDS011;11385;50.822;4.324;2023-06-26T13:29:14;7.00;;;1.87;;
22435;SDS011;11385;50.822;4.324;2023-06-26T13:31:41;7.83;;;1.55;;
22435;SDS011;11385;50.822;4.324;2023-06-26T13:34:08;9.63;;;1.50;;
22435;SDS011;11385;50.822;4.324;2023-06-26T13:36:34;7.05;;;1.45;;
22435;SDS011;11385;50.822;4.324;2023-06-26T13:39:02;6.37;;;1.67;;
22435;SDS011;11385;50.822;4.324;2023-06-26T13:41:30;7.12;;;1.60;;
22435;SDS011;11385;50.822;4.324;2023-06-26T13:43:57;8.95;;;2.30;;
22435;SDS011;11385;50.822;4.324;2023-06-26T13:46:23;8.15;;;2.10;;
22435;SDS011;11385;50.822;4.324;2023-06-26T13:48:50;4.10;;;1.22;;
22435;SDS011;11385;50.822;4.324;2023-06-26T13:51:16;9.08;;;1.85;;
22435;SDS011;11385;50.822;4.324;2023-06-26T13:53:43;4.42;;;1.47;;
22435;SDS011;11385;50.822;4.324;2023-06-26T13:56:10;5.58;;;1.35;;
22435;SDS011;11385;50.822;4.324;2023-06-26T13:58:36;5.87;;;1.65;;
22435;SDS011;11385;50.822;4.324;2023-06-26T14:01:04;6.25;;;1.92;;
22435;SDS011;11385;50.822;4.324;2023-06-26T14:03:30;5.00;;;1.60;;
22435;SDS011;11385;50.822;4.324;2023-06-26T14:05:57;3.77;;;1.30;;
22435;SDS011;11385;50.822;4.324;2023-06-26T14:08:24;4.58;;;1.17;;
22435;SDS011;11385;50.822;4.324;2023-06-26T14:10:51;6.05;;;1.60;;
22435;SDS011;11385;50.822;4.324;2023-06-26T14:13:19;5.42;;;1.10;;
22435;SDS011;11385;50.822;4.324;2023-06-26T14:15:46;12.10;;;1.82;;
22435;SDS011;11385;50.822;4.324;2023-06-26T14:18:13;9.20;;;1.32;;
22435;SDS011;11385;50.822;4.324;2023-06-26T14:20:40;4.33;;;1.22;;
22435;SDS011;11385;50.822;4.324;2023-06-26T14:23:06;3.65;;;1.00;;
22435;SDS011;11385;50.822;4.324;2023-06-26T14:25:33;2.52;;;0.90;;
22435;SDS011;11385;50.822;4.324;2023-06-26T14:28:00;5.45;;;1.20;;
22435;SDS011;11385;50.822;4.324;2023-06-26T14:30:26;6.37;;;1.37;;
22435;SDS011;11385;50.822;4.324;2023-06-26T14:32:53;6.30;;;1.72;;
22435;SDS011;11385;50.822;4.324;2023-06-26T14:35:20;4.70;;;1.10;;
22435;SDS011;11385;50.822;4.324;2023-06-26T14:37:47;7.17;;;1.47;;
22435;SDS011;11385;50.822;4.324;2023-06-26T14:40:15;3.20;;;0.90;;
22435;SDS011;11385;50.822;4.324;2023-06-26T14:42:42;6.40;;;1.40;;
22435;SDS011;11385;50.822;4.324;2023-06-26T14:45:09;3.55;;;1.32;;
22435;SDS011;11385;50.822;4.324;2023-06-26T14:47:36;3.85;;;1.30;;
22435;SDS011;11385;50.822;4.324;2023-06-26T14:50:03;5.35;;;1.20;;
22435;SDS011;11385;50.822;4.324;2023-06-26T14:52:30;3.92;;;1.22;;
22435;SDS011;11385;50.822;4.324;2023-06-26T14:54:57;4.85;;;1.52;;
22435;SDS011;11385;50.822;4.324;2023-06-26T14:57:23;7.58;;;1.87;;
22435;SDS011;11385;50.822;4.324;2023-06-26T14:59:50;5.28;;;1.40;;